createdAt,value
2017-08-15T00:01:09.482Z,99.90
2017-08-15T00:03:36.918Z,99.90
2017-08-15T00:06:05.127Z,99.90
2017-08-15T00:08:32.583Z,99.90
2017-08-15T00:11:00.014Z,99.90
2017-08-15T00:13:27.456Z,99.90
2017-08-15T00:15:55.667Z,99.90
2017-08-15T00:18:23.123Z,99.90
2017-08-15T00:20:50.558Z,99.90
2017-08-15T00:23:17.994Z,99.90
2017-08-15T00:25:46.204Z,99.90
2017-08-15T00:28:13.642Z,99.90
2017-08-15T00:30:41.074Z,99.90
2017-08-15T00:33:09.294Z,99.90
2017-08-15T00:35:36.734Z,99.90
2017-08-15T00:38:04.173Z,99.90
2017-08-15T00:40:32.374Z,99.90
2017-08-15T00:42:59.838Z,99.90
2017-08-15T00:45:27.267Z,99.90
2017-08-15T00:47:54.700Z,99.90
2017-08-15T00:50:22.907Z,99.90
2017-08-15T00:52:50.343Z,99.90
2017-08-15T00:55:18.551Z,99.90
2017-08-15T00:57:45.993Z,99.90
2017-08-15T01:00:13.435Z,99.90
2017-08-15T01:02:40.869Z,99.90
2017-08-15T01:05:09.080Z,99.90
2017-08-15T01:07:36.510Z,99.90
2017-08-15T01:10:04.726Z,99.90
2017-08-15T01:12:32.162Z,99.90
2017-08-15T01:14:59.613Z,99.90
2017-08-15T01:17:27.047Z,99.90
2017-08-15T01:19:55.266Z,99.90
2017-08-15T01:22:22.706Z,99.90
2017-08-15T01:24:50.151Z,99.90
2017-08-15T01:27:17.582Z,99.90
2017-08-15T01:29:45.792Z,99.90
2017-08-15T01:32:13.239Z,99.90
2017-08-15T01:34:40.679Z,99.90
2017-08-15T01:37:08.119Z,99.90
2017-08-15T01:39:35.577Z,99.90
2017-08-15T01:42:03.786Z,99.90
2017-08-15T01:44:31.226Z,99.90
2017-08-15T01:46:59.436Z,99.90
2017-08-15T01:49:26.874Z,99.90
2017-08-15T01:51:54.314Z,99.90
2017-08-15T01:54:21.754Z,99.90
2017-08-15T01:56:49.970Z,99.90
2017-08-15T01:59:17.406Z,99.90
2017-08-15T02:01:44.853Z,99.90
2017-08-15T02:04:13.063Z,99.90
2017-08-15T02:06:40.513Z,99.90
2017-08-15T02:09:07.942Z,99.90
2017-08-15T02:11:35.430Z,99.90
2017-08-15T02:14:02.886Z,99.90
2017-08-15T02:16:30.321Z,99.90
2017-08-15T02:18:57.746Z,99.90
2017-08-15T02:21:25.959Z,99.90
2017-08-15T02:23:53.387Z,99.90
2017-08-15T02:26:22.423Z,99.90
2017-08-15T02:28:49.867Z,99.90
2017-08-15T02:31:17.304Z,99.90
2017-08-15T02:33:44.743Z,99.90
2017-08-15T02:36:12.969Z,99.90
2017-08-15T02:38:40.419Z,99.90
2017-08-15T02:41:07.860Z,99.90
2017-08-15T02:43:35.305Z,99.90
2017-08-15T02:46:02.739Z,99.90
2017-08-15T02:48:30.964Z,99.90
2017-08-15T02:50:58.398Z,99.90
2017-08-15T02:53:25.839Z,99.90
2017-08-15T02:55:53.282Z,99.90
2017-08-15T02:58:21.486Z,99.90
2017-08-15T03:00:48.922Z,99.90
2017-08-15T03:03:17.132Z,99.90
2017-08-15T03:05:44.571Z,99.90
2017-08-15T03:08:12.027Z,99.90
2017-08-15T03:10:39.476Z,99.90
2017-08-15T03:13:06.923Z,99.90
2017-08-15T03:15:35.134Z,99.90
2017-08-15T03:18:02.570Z,99.90
2017-08-15T03:20:30.010Z,99.90
2017-08-15T03:22:59.035Z,99.90
2017-08-15T03:25:26.474Z,99.90
2017-08-15T03:27:53.910Z,99.90
2017-08-15T03:30:22.121Z,99.90
2017-08-15T03:32:49.556Z,99.90
2017-08-15T03:35:16.998Z,99.90
2017-08-15T03:37:45.201Z,99.90
2017-08-15T03:40:12.657Z,99.90
2017-08-15T03:42:40.097Z,99.90
2017-08-15T03:45:07.537Z,99.90
2017-08-15T03:47:35.750Z,99.90
2017-08-15T03:50:03.203Z,99.90
2017-08-15T03:52:30.632Z,99.90
2017-08-15T03:54:58.074Z,99.90
2017-08-15T03:57:26.290Z,99.90
2017-08-15T03:59:53.741Z,99.90
2017-08-15T04:02:21.170Z,99.90
2017-08-15T04:04:48.620Z,99.90
2017-08-15T04:07:16.842Z,99.90
2017-08-15T04:09:44.289Z,99.90
2017-08-15T04:12:11.747Z,99.90
2017-08-15T04:14:39.178Z,99.90
2017-08-15T04:17:06.618Z,99.90
2017-08-15T04:19:34.836Z,99.90
2017-08-15T04:22:02.292Z,99.90
2017-08-15T04:24:29.723Z,99.90
2017-08-15T04:26:57.158Z,99.90
2017-08-15T04:29:25.371Z,99.90
2017-08-15T04:31:52.810Z,99.90
2017-08-15T04:34:20.250Z,99.90
2017-08-15T04:36:48.475Z,99.90
2017-08-15T04:39:15.916Z,99.90
2017-08-15T04:41:43.354Z,99.90
2017-08-15T04:44:10.794Z,99.90
2017-08-15T04:46:39.019Z,99.90
2017-08-15T04:49:06.455Z,99.90
2017-08-15T04:51:33.916Z,99.90
2017-08-15T04:54:01.367Z,99.90
2017-08-15T04:56:28.790Z,99.90
2017-08-15T04:58:56.999Z,99.90
2017-08-15T05:01:24.439Z,99.90
2017-08-15T05:03:51.874Z,99.90
2017-08-15T05:06:20.083Z,99.90
2017-08-15T05:08:47.538Z,99.90
2017-08-15T05:11:14.977Z,99.90
2017-08-15T05:13:42.414Z,99.90
2017-08-15T05:16:10.625Z,99.90
2017-08-15T05:18:38.066Z,99.90
2017-08-15T05:21:05.506Z,99.90
2017-08-15T05:23:32.950Z,99.90
2017-08-15T05:26:01.151Z,99.90
2017-08-15T05:28:28.618Z,99.90
2017-08-15T05:30:56.043Z,99.90
2017-08-15T05:33:24.252Z,99.90
2017-08-15T05:35:51.703Z,99.90
2017-08-15T05:38:22.710Z,99.90
2017-08-15T05:40:50.927Z,99.90
2017-08-15T05:43:18.362Z,99.90
2017-08-15T05:45:45.816Z,99.90
2017-08-15T05:48:13.259Z,99.90
2017-08-15T05:50:40.701Z,99.90
2017-08-15T05:53:08.921Z,99.90
2017-08-15T05:55:36.350Z,99.90
2017-08-15T05:58:03.787Z,99.90
2017-08-15T06:00:31.236Z,99.90
2017-08-15T06:02:58.687Z,99.90
2017-08-15T06:05:26.139Z,99.90
2017-08-15T06:07:53.575Z,99.90
2017-08-15T06:10:21.015Z,99.90
2017-08-15T06:12:48.455Z,99.90
2017-08-15T06:15:15.911Z,99.90
2017-08-15T06:17:43.346Z,99.90
2017-08-15T06:20:11.555Z,99.90
2017-08-15T06:22:38.994Z,99.90
2017-08-15T06:25:06.433Z,99.90
2017-08-15T06:27:34.642Z,99.90
2017-08-15T06:30:02.118Z,99.90
2017-08-15T06:32:29.563Z,99.90
2017-08-15T06:34:59.211Z,99.90
2017-08-15T06:37:26.660Z,99.90
2017-08-15T06:39:54.096Z,99.90
2017-08-15T06:42:21.578Z,99.90
2017-08-15T06:44:49.792Z,99.90
2017-08-15T06:47:17.238Z,99.90
2017-08-15T06:49:44.678Z,99.90
2017-08-15T06:52:12.890Z,99.90
2017-08-15T06:54:40.324Z,99.90
2017-08-15T06:57:07.767Z,99.90
2017-08-15T06:59:35.215Z,99.90
2017-08-15T07:02:03.497Z,99.90
2017-08-15T07:04:30.939Z,99.90
2017-08-15T07:06:59.150Z,99.90
2017-08-15T07:09:26.599Z,99.90
2017-08-15T07:11:54.047Z,99.90
2017-08-15T07:14:21.483Z,99.90
2017-08-15T07:16:48.923Z,99.90
2017-08-15T07:19:16.363Z,99.90
2017-08-15T07:21:43.804Z,99.90
2017-08-15T07:24:11.259Z,99.90
2017-08-15T07:26:38.691Z,99.90
2017-08-15T07:29:06.131Z,99.90
2017-08-15T07:31:34.343Z,99.90
2017-08-15T07:34:01.800Z,99.90
2017-08-15T07:36:29.239Z,99.90
2017-08-15T07:38:56.680Z,99.90
2017-08-15T07:41:24.118Z,99.90
2017-08-15T07:43:52.339Z,99.90
2017-08-15T07:46:19.770Z,99.90
2017-08-15T07:48:47.234Z,99.90
2017-08-15T07:51:14.666Z,99.90
2017-08-15T07:53:42.879Z,99.90
2017-08-15T07:56:10.318Z,99.90
2017-08-15T07:58:37.750Z,99.90
2017-08-15T08:01:05.970Z,99.90
2017-08-15T08:03:33.403Z,99.90
2017-08-15T08:06:01.010Z,99.90
2017-08-15T08:08:28.515Z,99.90
2017-08-15T08:10:55.958Z,99.90
2017-08-15T08:13:24.167Z,99.90
2017-08-15T08:15:51.619Z,99.90
2017-08-15T08:18:19.050Z,99.90
2017-08-15T08:20:46.499Z,99.90
2017-08-15T08:23:14.712Z,99.90
2017-08-15T08:25:42.150Z,99.90
2017-08-15T08:28:09.586Z,99.90
2017-08-15T08:30:37.797Z,99.90
2017-08-15T08:33:05.237Z,99.90
2017-08-15T08:35:32.683Z,99.90
2017-08-15T08:38:00.129Z,99.40
2017-08-15T08:40:28.322Z,99.90
2017-08-15T08:42:55.767Z,99.90
2017-08-15T08:45:23.204Z,99.50
2017-08-15T08:47:51.408Z,98.40
2017-08-15T08:50:18.854Z,98.30
2017-08-15T08:52:46.299Z,97.00
2017-08-15T08:55:14.507Z,97.10
2017-08-15T08:57:41.950Z,97.00
2017-08-15T09:00:09.391Z,99.30
2017-08-15T09:02:36.841Z,98.20
2017-08-15T09:05:04.281Z,98.90
2017-08-15T09:07:31.727Z,96.90
2017-08-15T09:09:59.166Z,97.60
2017-08-15T09:12:26.610Z,95.60
2017-08-15T09:14:54.059Z,94.00
2017-08-15T09:17:21.516Z,91.00
2017-08-15T09:19:48.965Z,91.30
2017-08-15T09:22:16.402Z,96.00
2017-08-15T09:24:43.839Z,95.70
2017-08-15T09:27:12.051Z,95.20
2017-08-15T09:29:45.200Z,95.20
2017-08-15T09:32:13.402Z,96.00
2017-08-15T09:34:40.856Z,96.00
2017-08-15T09:37:08.282Z,96.50
2017-08-15T09:39:36.501Z,95.50
2017-08-15T09:42:03.931Z,95.40
2017-08-15T09:44:31.380Z,97.10
2017-08-15T09:46:58.831Z,94.60
2017-08-15T09:49:27.046Z,90.80
2017-08-15T09:51:54.504Z,90.80
2017-08-15T09:54:21.959Z,92.90
2017-08-15T09:56:49.403Z,92.10
2017-08-15T09:59:16.843Z,92.00
2017-08-15T10:01:44.286Z,92.70
2017-08-15T10:04:12.504Z,92.10
2017-08-15T10:06:39.964Z,92.10
2017-08-15T10:09:07.399Z,91.40
2017-08-15T10:11:34.851Z,92.60
2017-08-15T10:14:02.291Z,90.60
2017-08-15T10:16:29.735Z,89.90
2017-08-15T10:18:57.931Z,89.70
2017-08-15T10:21:25.380Z,89.70
2017-08-15T10:23:53.588Z,79.80
2017-08-15T10:26:21.036Z,79.50
2017-08-15T10:28:48.536Z,76.90
2017-08-15T10:31:15.972Z,82.40
2017-08-15T10:33:43.414Z,78.50
2017-08-15T10:36:10.868Z,79.30
2017-08-15T10:38:38.332Z,80.00
2017-08-15T10:41:05.808Z,84.40
2017-08-15T10:43:33.247Z,87.40
2017-08-15T10:46:00.695Z,91.00
2017-08-15T10:48:28.135Z,87.60
2017-08-15T10:50:55.579Z,88.90
2017-08-15T10:53:23.016Z,85.40
2017-08-15T10:55:51.218Z,83.50
2017-08-15T10:58:18.693Z,83.40
2017-08-15T11:00:46.147Z,85.40
2017-08-15T11:03:13.605Z,85.70
2017-08-15T11:05:41.251Z,87.30
2017-08-15T11:08:08.692Z,86.70
2017-08-15T11:10:36.131Z,85.30
2017-08-15T11:13:04.358Z,86.10
2017-08-15T11:15:31.787Z,86.10
2017-08-15T11:17:59.231Z,83.40
2017-08-15T11:20:26.667Z,85.00
2017-08-15T11:22:54.892Z,80.60
2017-08-15T11:25:22.327Z,79.60
2017-08-15T11:27:49.775Z,77.00
2017-08-15T11:30:17.219Z,73.70
2017-08-15T11:32:44.739Z,77.50
2017-08-15T11:35:12.174Z,77.10
2017-08-15T11:37:39.643Z,76.80
2017-08-15T11:40:07.087Z,78.80
2017-08-15T11:42:34.530Z,78.00
2017-08-15T11:45:01.967Z,76.80
2017-08-15T11:47:29.408Z,79.10
2017-08-15T11:49:56.858Z,77.40
2017-08-15T11:52:24.296Z,71.00
2017-08-15T11:54:51.823Z,74.50
2017-08-15T11:57:19.253Z,76.50
2017-08-15T11:59:46.703Z,77.90
2017-08-15T12:02:14.908Z,76.10
2017-08-15T12:04:42.363Z,76.30
2017-08-15T12:07:09.809Z,75.50
2017-08-15T12:09:37.245Z,74.20
2017-08-15T12:12:05.476Z,73.80
2017-08-15T12:14:32.939Z,73.80
2017-08-15T12:17:00.375Z,70.00
2017-08-15T12:19:27.824Z,74.80
2017-08-15T12:21:55.281Z,70.30
2017-08-15T12:24:22.719Z,75.00
2017-08-15T12:26:50.167Z,74.20
2017-08-15T12:29:17.610Z,75.90
2017-08-15T12:31:45.051Z,75.60
2017-08-15T12:34:13.269Z,74.20
2017-08-15T12:36:40.707Z,74.30
2017-08-15T12:39:08.139Z,68.20
2017-08-15T12:41:36.358Z,69.00
2017-08-15T12:44:03.812Z,68.90
2017-08-15T12:46:31.271Z,69.50
2017-08-15T12:48:58.735Z,71.50
2017-08-15T12:51:26.185Z,67.50
2017-08-15T12:53:53.624Z,68.70
2017-08-15T12:56:21.071Z,67.00
2017-08-15T12:58:48.737Z,64.60
2017-08-15T13:01:16.179Z,68.60
2017-08-15T13:03:44.387Z,66.00
2017-08-15T13:06:11.855Z,66.00
2017-08-15T13:08:39.299Z,67.90
2017-08-15T13:11:06.743Z,69.80
2017-08-15T13:13:34.187Z,71.60
2017-08-15T13:16:01.630Z,72.90
2017-08-15T13:18:29.843Z,81.20
2017-08-15T13:20:57.280Z,81.30
2017-08-15T13:23:24.730Z,88.00
2017-08-15T13:25:52.168Z,92.30
2017-08-15T13:28:20.390Z,99.90
2017-08-15T13:30:47.876Z,99.90
2017-08-15T13:33:15.323Z,99.90
2017-08-15T13:35:42.766Z,99.90
2017-08-15T13:38:10.208Z,99.90
2017-08-15T13:40:37.659Z,99.90
2017-08-15T13:43:05.116Z,99.90
2017-08-15T13:45:32.550Z,99.40
2017-08-15T13:47:59.996Z,99.00
2017-08-15T13:50:28.209Z,98.50
2017-08-15T13:52:55.666Z,98.40
2017-08-15T13:55:23.174Z,95.40
2017-08-15T13:57:50.647Z,95.40
2017-08-15T14:00:18.225Z,96.30
2017-08-15T14:02:46.005Z,95.20
2017-08-15T14:05:13.436Z,94.80
2017-08-15T14:07:40.868Z,95.70
2017-08-15T14:10:09.155Z,95.10
2017-08-15T14:12:37.362Z,96.60
2017-08-15T14:15:04.825Z,96.60
2017-08-15T14:17:32.275Z,96.50
2017-08-15T14:19:59.715Z,97.00
2017-08-15T14:22:27.159Z,97.50
2017-08-15T14:24:54.599Z,96.50
2017-08-15T14:27:22.046Z,96.90
2017-08-15T14:29:49.491Z,96.30
2017-08-15T14:32:16.937Z,96.70
2017-08-15T14:34:44.378Z,95.70
2017-08-15T14:37:11.823Z,96.30
2017-08-15T14:39:39.587Z,96.20
2017-08-15T14:42:07.021Z,96.90
2017-08-15T14:44:34.462Z,97.90
2017-08-15T14:47:02.671Z,98.50
2017-08-15T14:49:30.430Z,98.40
2017-08-15T14:51:57.975Z,99.20
2017-08-15T14:54:25.435Z,99.90
2017-08-15T14:56:52.883Z,99.90
2017-08-15T14:59:20.323Z,99.90
2017-08-15T15:01:48.562Z,99.90
2017-08-15T15:04:16.015Z,99.90
2017-08-15T15:06:43.463Z,99.90
2017-08-15T15:09:10.903Z,99.90
2017-08-15T15:11:38.354Z,99.90
2017-08-15T15:14:05.798Z,99.90
2017-08-15T15:16:33.249Z,99.40
2017-08-15T15:19:00.686Z,99.50
2017-08-15T15:21:28.903Z,99.90
2017-08-15T15:23:56.343Z,99.90
2017-08-15T15:26:23.796Z,99.70
2017-08-15T15:28:51.235Z,99.90
2017-08-15T15:31:19.447Z,99.40
2017-08-15T15:33:46.899Z,99.30
2017-08-15T15:36:14.371Z,99.80
2017-08-15T15:38:41.811Z,99.90
2017-08-15T15:41:09.271Z,99.90
2017-08-15T15:43:36.706Z,99.90
2017-08-15T15:46:04.313Z,99.50
2017-08-15T15:48:31.814Z,99.90
2017-08-15T15:50:59.310Z,98.80
2017-08-15T15:53:26.795Z,99.60
2017-08-15T15:55:54.236Z,99.90
2017-08-15T15:58:21.698Z,99.90
2017-08-15T16:00:49.134Z,99.90
2017-08-15T16:03:16.583Z,99.90
2017-08-15T16:05:44.019Z,99.90
2017-08-15T16:08:11.463Z,99.90
2017-08-15T16:10:38.899Z,99.90
2017-08-15T16:13:07.124Z,99.90
2017-08-15T16:15:34.559Z,99.90
2017-08-15T16:18:02.003Z,99.90
2017-08-15T16:20:30.207Z,99.90
2017-08-15T16:22:57.651Z,99.90
2017-08-15T16:25:25.084Z,99.90
2017-08-15T16:27:53.295Z,99.90
2017-08-15T16:30:20.735Z,99.90
2017-08-15T16:32:48.185Z,99.90
2017-08-15T16:35:15.623Z,99.90
2017-08-15T16:37:43.836Z,99.90
2017-08-15T16:40:11.276Z,99.90
2017-08-15T16:42:38.721Z,99.90
2017-08-15T16:45:06.162Z,99.90
2017-08-15T16:47:34.379Z,99.90
2017-08-15T16:50:01.839Z,99.90
2017-08-15T16:52:29.272Z,99.90
2017-08-15T16:54:56.711Z,99.90
2017-08-15T16:57:24.919Z,99.90
2017-08-15T16:59:52.375Z,99.90
2017-08-15T17:02:19.822Z,99.90
2017-08-15T17:04:47.263Z,99.90
2017-08-15T17:07:14.699Z,99.90
2017-08-15T17:09:42.923Z,99.90
2017-08-15T17:12:10.376Z,99.90
2017-08-15T17:14:37.831Z,99.90
2017-08-15T17:17:05.275Z,99.90
2017-08-15T17:19:32.723Z,99.90
2017-08-15T17:22:00.159Z,99.90
2017-08-15T17:24:28.370Z,99.90
2017-08-15T17:26:55.823Z,99.90
2017-08-15T17:29:23.258Z,99.90
2017-08-15T17:31:50.696Z,99.90
2017-08-15T17:34:18.916Z,99.90
2017-08-15T17:36:46.355Z,99.90
2017-08-15T17:39:13.810Z,99.90
2017-08-15T17:41:41.256Z,99.90
2017-08-15T17:44:09.562Z,99.90
2017-08-15T17:46:37.014Z,99.90
2017-08-15T17:49:04.458Z,99.90
2017-08-15T17:51:31.899Z,99.90
2017-08-15T17:53:59.351Z,99.90
2017-08-15T17:56:27.561Z,99.90
2017-08-15T17:58:55.012Z,99.90
2017-08-15T18:01:22.448Z,99.90
2017-08-15T18:03:49.878Z,99.90
2017-08-15T18:06:18.099Z,99.90
2017-08-15T18:08:45.535Z,99.90
2017-08-15T18:11:12.976Z,99.90
2017-08-15T18:13:40.414Z,99.90
2017-08-15T18:16:07.859Z,99.90
2017-08-15T18:18:35.304Z,99.90
2017-08-15T18:21:02.752Z,99.90
2017-08-15T18:23:30.191Z,99.90
2017-08-15T18:25:57.749Z,99.90
2017-08-15T18:28:25.171Z,99.90
2017-08-15T18:30:52.636Z,99.90
2017-08-15T18:33:20.072Z,99.90
2017-08-15T18:35:47.527Z,99.90
2017-08-15T18:38:14.966Z,99.90
2017-08-15T18:40:42.401Z,99.90
2017-08-15T18:43:09.867Z,99.90
2017-08-15T18:45:37.300Z,99.90
2017-08-15T18:48:04.758Z,99.90
2017-08-15T18:50:32.204Z,99.90
2017-08-15T18:52:59.694Z,99.90
2017-08-15T18:55:27.126Z,99.90
2017-08-15T18:57:54.607Z,99.90
2017-08-15T19:00:22.050Z,99.90
2017-08-15T19:02:49.531Z,99.90
2017-08-15T19:05:17.022Z,99.90
2017-08-15T19:07:44.471Z,99.90
2017-08-15T19:10:11.919Z,99.90
2017-08-15T19:12:40.130Z,99.90
2017-08-15T19:15:07.558Z,99.90
2017-08-15T19:17:35.007Z,99.90
2017-08-15T19:20:03.210Z,99.90
2017-08-15T19:22:30.647Z,99.90
2017-08-15T19:24:58.191Z,99.90
2017-08-15T19:27:25.626Z,99.90
2017-08-15T19:29:53.067Z,99.90
2017-08-15T19:32:20.504Z,99.90
2017-08-15T19:34:47.959Z,99.90
2017-08-15T19:37:15.399Z,99.90
2017-08-15T19:39:42.851Z,99.90
2017-08-15T19:42:10.295Z,99.90
2017-08-15T19:44:37.738Z,99.90
2017-08-15T19:47:05.953Z,99.90
2017-08-15T19:49:33.415Z,99.90
2017-08-15T19:52:00.863Z,99.90
2017-08-15T19:54:28.302Z,99.90
2017-08-15T19:56:55.738Z,99.90
2017-08-15T19:59:23.958Z,99.90
2017-08-15T20:01:51.391Z,99.90
2017-08-15T20:04:18.830Z,99.90
2017-08-15T20:06:46.263Z,99.90
2017-08-15T20:09:13.716Z,99.90
2017-08-15T20:11:41.159Z,99.90
2017-08-15T20:14:08.602Z,99.90
2017-08-15T20:16:36.050Z,99.90
2017-08-15T20:19:03.521Z,99.90
2017-08-15T20:21:30.972Z,99.90
2017-08-15T20:23:58.414Z,99.90
2017-08-15T20:26:25.878Z,99.90
2017-08-15T20:28:53.327Z,99.90
2017-08-15T20:31:20.770Z,99.90
2017-08-15T20:33:48.184Z,99.90
2017-08-15T20:36:16.409Z,99.90
2017-08-15T20:38:43.817Z,99.90
2017-08-15T20:41:12.015Z,99.90
2017-08-15T20:43:39.432Z,99.90
2017-08-15T20:46:06.963Z,99.90
2017-08-15T20:48:34.456Z,99.90
2017-08-15T20:51:01.900Z,99.90
2017-08-15T20:53:29.347Z,99.90
2017-08-15T20:55:56.800Z,99.90
2017-08-15T20:58:24.499Z,99.90
2017-08-15T21:00:51.992Z,99.90
2017-08-15T21:03:19.418Z,99.90
2017-08-15T21:05:47.636Z,99.90
2017-08-15T21:08:15.087Z,99.90
2017-08-15T21:10:44.499Z,99.90
2017-08-15T21:13:11.930Z,99.90
2017-08-15T21:15:42.180Z,99.90
2017-08-15T21:18:09.687Z,99.90
2017-08-15T21:20:37.916Z,99.90
2017-08-15T21:23:05.354Z,99.90
2017-08-15T21:25:32.813Z,99.90
2017-08-15T21:28:00.267Z,99.90
2017-08-15T21:30:27.682Z,99.90
2017-08-15T21:32:55.871Z,99.90
2017-08-15T21:35:23.303Z,99.90
2017-08-15T21:37:51.522Z,99.90
2017-08-15T21:40:18.924Z,99.90
2017-08-15T21:42:46.343Z,99.90
2017-08-15T21:45:13.775Z,99.90
2017-08-15T21:47:41.197Z,99.90
2017-08-15T21:50:09.380Z,99.90
2017-08-15T21:52:37.590Z,99.90
2017-08-15T21:55:05.014Z,99.90
2017-08-15T21:57:32.459Z,99.90
2017-08-15T22:00:00.680Z,99.90
2017-08-15T22:02:28.130Z,99.90
2017-08-15T22:04:56.551Z,99.90
2017-08-15T22:07:23.985Z,99.90
2017-08-15T22:09:51.427Z,99.90
2017-08-15T22:12:18.870Z,99.90
2017-08-15T22:14:46.469Z,99.90
2017-08-15T22:17:13.927Z,99.90
2017-08-15T22:19:41.367Z,99.90
2017-08-15T22:22:08.810Z,99.90
2017-08-15T22:24:36.260Z,99.90
2017-08-15T22:27:03.691Z,99.90
2017-08-15T22:29:31.142Z,99.90
2017-08-15T22:31:59.454Z,99.90
2017-08-15T22:34:26.892Z,99.90
2017-08-15T22:36:54.331Z,99.90
2017-08-15T22:39:22.539Z,99.90
2017-08-15T22:41:49.980Z,99.90
2017-08-15T22:44:17.450Z,99.90
2017-08-15T22:46:44.895Z,99.90
2017-08-15T22:49:12.330Z,99.90
2017-08-15T22:51:40.559Z,99.90
2017-08-15T22:54:08.001Z,99.90
2017-08-15T22:56:35.453Z,99.90
2017-08-15T22:59:02.882Z,99.90
2017-08-15T23:01:30.327Z,99.90
2017-08-15T23:03:57.769Z,99.90
2017-08-15T23:06:25.207Z,99.90
2017-08-15T23:08:52.642Z,99.90
2017-08-15T23:11:20.085Z,99.90
2017-08-15T23:13:47.526Z,99.90
2017-08-15T23:16:14.970Z,99.90
2017-08-15T23:18:42.402Z,99.90
2017-08-15T23:21:10.626Z,99.90
2017-08-15T23:23:38.064Z,99.90
2017-08-15T23:26:05.503Z,99.90
2017-08-15T23:28:33.715Z,99.90
2017-08-15T23:31:01.151Z,99.90
2017-08-15T23:33:28.597Z,99.90
2017-08-15T23:35:56.030Z,99.90
2017-08-15T23:38:23.475Z,99.90
2017-08-15T23:40:50.916Z,99.90
2017-08-15T23:43:18.359Z,99.90
2017-08-15T23:45:45.803Z,99.90
2017-08-15T23:48:13.263Z,99.90
2017-08-15T23:50:40.696Z,99.90
2017-08-15T23:53:08.139Z,99.90
2017-08-15T23:55:35.578Z,99.90
2017-08-15T23:58:03.808Z,99.90
